Saltar para o conteúdo principal

Proença-a-Nova, P.Moitas

ID 1210806 · 39.7333, -7.8667 mapa

Última leitura · 2026-05-09 18:00 (Europe/Lisbon)

Temperatura
13.3 °C
Humidade
83 %
Pressão
Precipitação
3.0 mm
Radiação
344 W/m²
Velocidade do vento
13.7 km/h
Direcção do vento
NW · Noroeste

Histórico de 24 horas

Hora (Europe/Lisbon) Temperatura Humidade Pressão Chuva Vento Direcção
2026-05-09 18:00 13.3 °C 83 % 3.0 mm 13.7 km/h NW
2026-05-09 17:00 15.3 °C 80 % 0.6 mm 12.2 km/h SW
2026-05-09 16:00 15.6 °C 77 % 1.6 mm 19.8 km/h SW
2026-05-09 15:00 16.0 °C 77 % 0.8 mm 19.8 km/h SW
2026-05-09 14:00 14.7 °C 88 % 0.5 mm 20.2 km/h SW
2026-05-09 13:00 13.8 °C 99 % 0.0 mm 6.5 km/h S
2026-05-09 12:00 12.5 °C 100 % 0.5 mm 3.6 km/h E
2026-05-09 11:00 11.8 °C 100 % 0.1 mm 8.6 km/h SE
2026-05-09 10:00 11.2 °C 100 % 3.2 mm 7.6 km/h SE
2026-05-09 09:00 11.4 °C 98 % 3.8 mm 6.5 km/h SE
2026-05-09 08:00 11.5 °C 98 % 0.2 mm 5.8 km/h E
2026-05-09 07:00 11.4 °C 99 % 0.0 mm 5.8 km/h E
2026-05-09 06:00 11.7 °C 98 % 0.0 mm 7.6 km/h SE
2026-05-09 05:00 11.6 °C 98 % 0.0 mm 8.6 km/h SE
2026-05-09 04:00 11.7 °C 97 % 0.0 mm 2.9 km/h SE
2026-05-09 03:00 11.6 °C 98 % 0.1 mm 4.3 km/h S
2026-05-09 02:00 12.0 °C 96 % 0.3 mm 4.3 km/h S
2026-05-09 01:00 12.7 °C 88 % 0.4 mm 15.1 km/h S
2026-05-09 00:00 12.8 °C 88 % 0.0 mm 10.8 km/h S
2026-05-08 23:00 13.0 °C 84 % 0.0 mm 11.5 km/h SW
2026-05-08 22:00 13.8 °C 77 % 0.0 mm 5.4 km/h W
2026-05-08 21:00 16.9 °C 48 % 0.1 mm 17.3 km/h S
2026-05-08 20:00 17.8 °C 42 % 0.0 mm 10.4 km/h S
2026-05-08 19:00 18.4 °C 41 % 0.0 mm 9.7 km/h S